Time;durP1;ratioP1;P1;durP2;ratioP2;P2;SDS_P1;SDS_P2;PMS_P1;PMS_P2;Temp;Humidity;BMP_temperature;BMP_pressure;BME280_temperature;BME280_humidity;BME280_pressure;Samples;Min_cycle;Max_cycle;Signal;HPM_P1;HPM_P2
2023/01/03 00:00:35;;;;;;;;;1.00;1.00;;;;;11.30;100.00;102378.06;5059682;28;45337;-74
2023/01/03 00:03:02;;;;;;;;;6.00;4.00;;;;;11.32;100.00;102380.75;5066382;28;45297;-75
2023/01/03 00:05:27;;;;;;;;;4.67;3.00;;;;;11.29;100.00;102381.53;5056562;28;47069;-76
2023/01/03 00:07:53;;;;;;;;;4.33;1.00;;;;;11.28;100.00;102383.28;5072765;28;45505;-74
2023/01/03 00:10:18;;;;;;;;;3.00;3.00;;;;;11.31;100.00;102393.06;5077996;28;45506;-74
2023/01/03 00:12:44;;;;;;;;;4.00;4.00;;;;;11.31;100.00;102386.91;5056606;28;49434;-73
2023/01/03 00:15:09;;;;;;;;;7.00;5.00;;;;;11.30;100.00;102391.28;5063336;28;62933;-74
2023/01/03 00:17:34;;;;;;;;;3.00;3.00;;;;;11.30;100.00;102393.94;5077400;28;45320;-74
2023/01/03 00:20:00;;;;;;;;;7.67;5.00;;;;;11.28;100.00;102383.28;5071205;28;52337;-74
2023/01/03 00:22:25;;;;;;;;;5.00;5.00;;;;;11.24;100.00;102381.41;5057748;28;45391;-74
2023/01/03 00:24:51;;;;;;;;;6.75;6.75;;;;;11.23;100.00;102376.94;5076153;28;59815;-75
2023/01/03 00:27:17;;;;;;;;;11.00;7.00;;;;;11.21;100.00;102377.75;5058406;28;45654;-73
2023/01/03 00:29:42;;;;;;;;;8.50;6.75;;;;;11.19;100.00;102374.19;5057831;28;45207;-76
2023/01/03 00:32:08;;;;;;;;;4.00;4.00;;;;;11.21;100.00;102376.00;5035991;28;45550;-75
2023/01/03 00:34:34;;;;;;;;;7.00;4.00;;;;;11.22;100.00;102379.53;5074571;28;46608;-74
2023/01/03 00:37:00;;;;;;;;;6.33;4.33;;;;;11.19;100.00;102376.81;5073661;28;45495;-75
2023/01/03 00:39:26;;;;;;;;;5.00;5.00;;;;;11.18;100.00;102381.19;5069730;28;45349;-75
2023/01/03 00:41:51;;;;;;;;;6.33;4.00;;;;;11.17;100.00;102368.81;5075917;28;45513;-75
2023/01/03 00:44:17;;;;;;;;;7.33;4.00;;;;;11.16;100.00;102380.25;5046552;28;48237;-74
2023/01/03 00:46:42;;;;;;;;;3.00;3.00;;;;;11.14;100.00;102379.31;5071114;27;45515;-74
2023/01/03 00:49:09;;;;;;;;;6.33;4.00;;;;;11.14;100.00;102373.13;5074190;28;45447;-73
2023/01/03 00:51:35;;;;;;;;;2.67;2.67;;;;;11.11;100.00;102379.19;5067088;27;45485;-74
2023/01/03 00:54:02;;;;;;;;;2.67;2.67;;;;;11.12;100.00;102378.34;5074471;28;47054;-75
2023/01/03 00:56:33;;;;;;;;;4.67;3.33;;;;;11.11;100.00;102379.19;5061946;28;45609;-73
2023/01/03 00:58:59;;;;;;;;;3.00;3.00;;;;;11.09;100.00;102369.41;5074989;28;45770;-75
2023/01/03 01:01:53;;;;;;;;;2.00;2.00;;;;;11.09;100.00;102374.72;5058790;28;45438;-74
2023/01/03 01:04:22;;;;;;;;;2.33;2.33;;;;;11.08;100.00;102372.88;5066420;28;45798;-75
2023/01/03 01:06:51;;;;;;;;;2.67;2.00;;;;;11.07;100.00;102376.38;5076922;28;45436;-74
2023/01/03 01:09:20;;;;;;;;;2.67;2.67;;;;;11.06;100.00;102386.06;5077203;28;45335;-75
2023/01/03 01:11:45;;;;;;;;;3.67;2.67;;;;;11.02;100.00;102371.88;5054494;28;45353;-76
2023/01/03 01:14:20;;;;;;;;;4.00;1.00;;;;;11.02;100.00;102377.16;5065463;28;45689;-74
2023/01/03 01:16:48;;;;;;;;;1.67;1.67;;;;;11.00;100.00;102380.56;5076495;28;45626;-74
2023/01/03 01:19:14;;;;;;;;;4.00;3.00;;;;;10.97;100.00;102373.44;5073052;28;45489;-74
2023/01/03 01:21:39;;;;;;;;;2.67;2.00;;;;;10.94;100.00;102370.69;5065611;28;45658;-74
2023/01/03 01:24:05;;;;;;;;;3.00;3.00;;;;;10.93;100.00;102379.47;5070737;28;46630;-75
2023/01/03 01:26:30;;;;;;;;;3.00;3.00;;;;;10.93;100.00;102374.19;5066316;28;45490;-73
2023/01/03 01:28:55;;;;;;;;;4.00;2.00;;;;;10.90;100.00;102376.72;5075158;28;50894;-74
2023/01/03 01:31:23;;;;;;;;;3.00;1.00;;;;;10.89;100.00;102374.91;5055005;28;45378;-73
2023/01/03 01:33:49;;;;;;;;;3.00;2.00;;;;;10.87;100.00;102375.72;5050858;28;45576;-74
2023/01/03 01:36:26;;;;;;;;;2.33;2.33;;;;;10.91;100.00;102386.44;5058210;28;45463;-75
2023/01/03 01:38:57;;;;;;;;;2.33;2.00;;;;;10.90;100.00;102386.38;5071363;28;45243;-75
2023/01/03 01:44:46;;;;;;;;;3.50;3.00;;;;;10.87;100.00;102389.84;5068459;28;45802;-75
2023/01/03 01:47:15;;;;;;;;;3.00;2.00;;;;;10.87;100.00;102386.28;5057813;28;46014;-74
2023/01/03 01:49:41;;;;;;;;;2.00;2.00;;;;;10.85;100.00;102396.78;5068812;28;45541;-73
2023/01/03 01:52:08;;;;;;;;;2.00;0.00;;;;;10.85;100.00;102396.78;5047401;28;45665;-73
2023/01/03 01:54:33;;;;;;;;;3.50;2.00;;;;;10.83;100.00;102392.31;5052731;28;46051;-73
2023/01/03 01:56:59;;;;;;;;;3.00;3.00;;;;;10.83;100.00;102397.59;5075742;28;45487;-74
2023/01/03 01:59:27;;;;;;;;;5.00;2.00;;;;;10.83;100.00;102402.88;5074321;28;45740;-75
2023/01/03 02:01:52;;;;;;;;;3.00;2.67;;;;;10.82;100.00;102399.34;5055977;28;45541;-76
2023/01/03 02:04:28;;;;;;;;;6.67;3.00;;;;;10.81;100.00;102405.44;5058011;28;55668;-74
2023/01/03 02:06:55;;;;;;;;;2.00;2.00;;;;;10.81;100.00;102404.56;5058074;28;45535;-74
2023/01/03 02:09:20;;;;;;;;;3.33;2.00;;;;;10.79;100.00;102409.78;5056022;28;45326;-74
2023/01/03 02:11:49;;;;;;;;;1.00;1.00;;;;;10.78;100.00;102410.66;5044540;28;46523;-75
2023/01/03 02:14:49;;;;;;;;;2.67;2.67;;;;;10.74;100.00;102408.72;5065696;28;45520;-74
2023/01/03 02:17:40;;;;;;;;;4.00;2.67;;;;;10.74;100.00;102414.00;5075643;28;45288;-74
2023/01/03 02:20:11;;;;;;;;;4.67;3.00;;;;;10.72;100.00;102419.25;5071941;28;45300;-73
2023/01/03 02:23:01;;;;;;;;;3.25;3.25;;;;;10.68;100.00;102414.69;5076199;28;45464;-75
2023/01/03 02:25:35;;;;;;;;;3.00;3.00;;;;;10.71;100.00;102421.84;5075076;28;46352;-75
2023/01/03 02:28:06;;;;;;;;;1.00;1.00;;;;;10.70;100.00;102422.66;5075241;28;45310;-73
2023/01/03 02:30:35;;;;;;;;;2.00;2.00;;;;;10.70;100.00;102417.38;5049108;28;45399;-73
2023/01/03 02:33:14;;;;;;;;;4.00;2.00;;;;;10.68;100.00;102419.97;5071492;28;45543;-73
2023/01/03 02:36:44;;;;;;;;;3.67;3.00;;;;;10.67;100.00;102417.28;5053562;28;46728;-75
2023/01/03 02:39:16;;;;;;;;;2.75;2.00;;;;;10.66;100.00;102419.03;5006040;28;45522;-75
2023/01/03 02:41:46;;;;;;;;;3.00;3.00;;;;;10.66;100.00;102415.50;5070159;28;45439;-73
2023/01/03 02:44:25;;;;;;;;;2.00;2.00;;;;;10.63;100.00;102418.00;5057966;28;45488;-74
2023/01/03 02:46:57;;;;;;;;;2.00;2.00;;;;;10.62;100.00;102413.59;5037269;28;47803;-73
2023/01/03 02:49:41;;;;;;;;;1.00;1.00;;;;;10.63;100.00;102418.00;5050862;28;45484;-74
2023/01/03 02:52:11;;;;;;;;;2.00;2.00;;;;;10.59;100.00;102414.34;5060894;28;45559;-76
2023/01/03 02:54:44;;;;;;;;;2.00;2.00;;;;;10.57;100.00;102418.69;5076711;28;45672;-75
2023/01/03 02:57:15;;;;;;;;;3.00;1.67;;;;;10.56;100.00;102419.53;5076136;28;46696;-74
2023/01/03 02:59:48;;;;;;;;;4.00;2.00;;;;;10.55;100.00;102417.75;5060806;28;45462;-74
2023/01/03 03:02:16;;;;;;;;;2.00;2.00;;;;;10.55;100.00;102428.31;5076594;28;45465;-75
2023/01/03 03:04:42;;;;;;;;;6.00;2.00;;;;;10.55;100.00;102423.03;5075266;28;45475;-73
2023/01/03 03:07:18;;;;;;;;;2.33;0.33;;;;;10.53;100.00;102408.84;5073469;28;63461;-76
2023/01/03 03:15:15;;;;;;;;;3.00;2.67;;;;;10.51;100.00;102415.84;5075697;28;45426;-73
2023/01/03 03:17:41;;;;;;;;;1.33;1.00;;;;;10.48;100.00;102419.25;5058964;28;46457;-75
2023/01/03 03:25:52;;;;;;;;;4.67;3.00;;;;;10.42;100.00;102412.84;5062093;28;45496;-75
2023/01/03 03:28:33;;;;;;;;;2.67;2.00;;;;;10.40;100.00;102417.19;5074712;28;46797;-74
2023/01/03 03:31:02;;;;;;;;;3.67;2.00;;;;;10.39;100.00;102425.97;5062038;28;45370;-75
2023/01/03 03:33:31;;;;;;;;;1.67;1.67;;;;;10.42;100.00;102431.31;5074096;28;45379;-74
2023/01/03 03:36:22;;;;;;;;;6.00;4.00;;;;;10.45;100.00;102418.25;5075126;28;45796;-75
2023/01/03 03:38:48;;;;;;;;;3.00;1.67;;;;;10.52;100.00;102419.38;5049470;28;48510;-75
2023/01/03 03:47:17;;;;;;;;;3.00;2.00;;;;;10.73;100.00;102434.25;5069147;28;45457;-74
2023/01/03 03:49:43;;;;;;;;;1.67;1.67;;;;;10.74;100.00;102427.22;5068960;28;45765;-74
2023/01/03 03:52:13;;;;;;;;;3.00;3.00;;;;;10.81;100.00;102433.63;5054453;28;55771;-75
2023/01/03 03:54:41;;;;;;;;;3.33;2.00;;;;;10.84;100.00;102424.06;5071431;28;45532;-74
2023/01/03 03:57:12;;;;;;;;;2.33;2.33;;;;;10.84;100.00;102426.72;5068302;28;45376;-73
2023/01/03 03:59:40;;;;;;;;;3.00;2.00;;;;;10.89;100.00;102437.44;5065946;28;46016;-74
2023/01/03 04:02:07;;;;;;;;;2.00;2.00;;;;;10.88;100.00;102433.00;5076627;28;45447;-74
2023/01/03 04:04:36;;;;;;;;;4.00;3.00;;;;;10.87;100.00;102423.28;5074168;28;48052;-73
2023/01/03 04:07:02;;;;;;;;;2.00;2.00;;;;;10.90;100.00;102426.91;5052247;28;45458;-73
2023/01/03 04:09:28;;;;;;;;;4.33;3.00;;;;;10.93;100.00;102434.97;5055706;28;61532;-74
2023/01/03 04:11:53;;;;;;;;;4.00;2.00;;;;;10.90;100.00;102434.84;5056095;28;45470;-74
2023/01/03 04:14:18;;;;;;;;;2.00;2.00;;;;;10.90;100.00;102436.59;5065633;28;52882;-73
2023/01/03 04:16:44;;;;;;;;;3.00;1.33;;;;;10.92;100.00;102432.25;5066768;28;45645;-75
2023/01/03 04:19:09;;;;;;;;;3.00;2.00;;;;;10.91;100.00;102431.34;5063478;28;45559;-74
2023/01/03 04:21:35;;;;;;;;;4.00;2.00;;;;;10.91;100.00;102436.63;5067509;28;45352;-74
2023/01/03 04:24:01;;;;;;;;;5.00;3.33;;;;;10.87;100.00;102432.13;5066788;28;45415;-73
2023/01/03 04:26:27;;;;;;;;;2.67;2.67;;;;;10.83;100.00;102431.94;5068041;28;45407;-74
2023/01/03 04:28:52;;;;;;;;;3.00;3.00;;;;;10.80;100.00;102438.00;5077358;28;59898;-74
2023/01/03 04:31:17;;;;;;;;;2.33;2.33;;;;;10.81;100.00;102450.38;5076918;28;54302;-73
2023/01/03 04:33:43;;;;;;;;;6.33;2.33;;;;;10.78;100.00;102449.38;5071013;28;53910;-73
2023/01/03 04:36:08;;;;;;;;;3.00;2.00;;;;;10.75;100.00;102443.13;5074648;28;47965;-74
2023/01/03 04:38:33;;;;;;;;;4.25;3.25;;;;;10.72;100.00;102455.34;5046096;28;60153;-73
2023/01/03 04:41:06;;;;;;;;;5.25;3.50;;;;;10.70;100.00;102447.34;5075175;28;45354;-75
2023/01/03 04:46:16;;;;;;;;;4.00;2.50;;;;;10.71;100.00;102448.25;5074408;28;45419;-73
2023/01/03 04:48:41;;;;;;;;;2.00;2.00;;;;;10.73;100.00;102439.53;5070960;28;45459;-74
2023/01/03 04:51:06;;;;;;;;;4.00;2.25;;;;;10.73;100.00;102449.22;5069644;28;58954;-74
2023/01/03 04:53:32;;;;;;;;;3.00;3.00;;;;;10.78;100.00;102450.28;5045027;28;45407;-74
2023/01/03 04:55:57;;;;;;;;;4.00;2.50;;;;;10.78;100.00;102460.84;5053634;28;50760;-74
2023/01/03 04:58:23;;;;;;;;;3.00;3.00;;;;;10.79;100.00;102460.00;5061750;28;63342;-73
2023/01/03 05:00:49;;;;;;;;;3.00;3.00;;;;;10.75;100.00;102463.34;5057302;28;45448;-74
2023/01/03 05:03:14;;;;;;;;;2.00;2.00;;;;;10.72;100.00;102463.28;5074490;28;53319;-75
2023/01/03 05:05:39;;;;;;;;;6.00;3.00;;;;;10.74;100.00;102469.50;5069959;27;45484;-74
2023/01/03 05:08:07;;;;;;;;;3.50;2.00;;;;;10.73;100.00;102470.34;5067282;27;46054;-73
2023/01/03 05:10:32;;;;;;;;;2.00;2.00;;;;;10.70;100.00;102459.66;5066085;28;45307;-74
2023/01/03 05:12:59;;;;;;;;;2.67;2.67;;;;;10.69;100.00;102460.50;5074302;28;45509;-74
2023/01/03 05:15:28;;;;;;;;;3.00;2.50;;;;;10.67;100.00;102454.28;5058845;28;45418;-73
2023/01/03 05:17:54;;;;;;;;;5.33;3.00;;;;;10.68;100.00;102462.25;5069716;28;46723;-74
2023/01/03 05:25:51;;;;;;;;;3.00;1.75;;;;;10.63;100.00;102473.47;5052730;28;45519;-74
2023/01/03 05:28:19;;;;;;;;;6.50;3.00;;;;;10.65;100.00;102467.44;5069357;28;45777;-73
2023/01/03 05:30:44;;;;;;;;;3.50;3.50;;;;;10.72;100.00;102473.84;5050206;28;45462;-74
2023/01/03 05:33:10;;;;;;;;;2.00;2.00;;;;;10.72;100.00;102471.19;5053304;28;54921;-73
2023/01/03 05:35:35;;;;;;;;;7.00;2.25;;;;;10.72;100.00;102458.88;5074910;28;45401;-74
2023/01/03 05:38:00;;;;;;;;;3.75;3.75;;;;;10.74;100.00;102464.22;5054700;28;45908;-74
2023/01/03 05:40:26;;;;;;;;;3.67;3.00;;;;;10.73;100.00;102459.78;5051249;28;52998;-72
2023/01/03 05:42:51;;;;;;;;;2.00;2.00;;;;;10.73;100.00;102460.66;5066850;28;45212;-72
2023/01/03 05:45:17;;;;;;;;;3.00;3.00;;;;;10.70;100.00;102457.00;5062964;28;46203;-76
2023/01/03 05:47:42;;;;;;;;;2.75;2.75;;;;;10.69;100.00;102464.03;5069106;28;45814;-75
2023/01/03 05:50:07;;;;;;;;;2.00;2.00;;;;;10.66;100.00;102463.03;5066806;28;45330;-75
2023/01/03 05:52:33;;;;;;;;;3.50;2.75;;;;;10.60;100.00;102465.44;5056135;28;45477;-73
2023/01/03 05:54:58;;;;;;;;;2.33;2.33;;;;;10.56;100.00;102466.19;5065438;28;51566;-72
2023/01/03 05:57:23;;;;;;;;;3.00;1.67;;;;;10.53;100.00;102466.97;5062730;28;59354;-75
2023/01/03 05:59:49;;;;;;;;;5.75;3.00;;;;;10.51;100.00;102471.28;5054223;28;59096;-77
2023/01/03 06:02:14;;;;;;;;;6.75;5.00;;;;;10.49;100.00;102476.53;5054953;28;54949;-74
2023/01/03 06:04:39;;;;;;;;;1.00;1.00;;;;;10.46;100.00;102476.41;5076266;28;45708;-73
2023/01/03 06:07:05;;;;;;;;;2.67;2.67;;;;;10.43;100.00;102476.28;5044851;28;58423;-72
2023/01/03 06:09:30;;;;;;;;;3.50;2.00;;;;;10.41;100.00;102483.25;5064287;28;57552;-74
2023/01/03 06:11:56;;;;;;;;;2.00;2.00;;;;;10.40;100.00;102485.84;5067656;28;45524;-74
2023/01/03 06:14:21;;;;;;;;;3.50;1.75;;;;;10.37;100.00;102481.31;5053075;28;45627;-73
2023/01/03 06:19:31;;;;;;;;;2.33;2.33;;;;;10.33;100.00;102481.13;5070305;28;45517;-73
2023/01/03 06:21:56;;;;;;;;;5.33;2.00;;;;;10.30;100.00;102484.59;5066749;28;55355;-74
2023/01/03 06:24:21;;;;;;;;;2.00;2.00;;;;;10.25;100.00;102485.25;5067432;27;52971;-74
2023/01/03 06:26:47;;;;;;;;;8.00;3.00;;;;;10.23;100.00;102490.44;5075349;27;60000;-74
2023/01/03 06:29:12;;;;;;;;;5.75;3.75;;;;;10.21;100.00;102492.09;5054724;28;60822;-74
2023/01/03 06:31:37;;;;;;;;;2.50;2.00;;;;;10.21;100.00;102503.56;5063387;27;52938;-75
2023/01/03 06:34:03;;;;;;;;;2.00;2.00;;;;;10.17;100.00;102487.53;5071127;27;51148;-74
2023/01/03 06:36:30;;;;;;;;;2.00;2.00;;;;;10.18;100.00;102499.91;5058026;28;45826;-75
2023/01/03 06:38:57;;;;;;;;;3.50;1.75;;;;;10.16;100.00;102496.28;5075422;27;45447;-75
2023/01/03 06:41:22;;;;;;;;;2.00;2.00;;;;;10.15;100.00;102500.69;5056836;28;55370;-74
2023/01/03 06:43:48;;;;;;;;;6.25;2.50;;;;;10.15;100.00;102512.97;5081792;27;45472;-74
2023/01/03 06:54:32;;;;;;;;;4.00;2.00;;;;;10.03;100.00;102513.41;5057788;28;45538;-73
2023/01/03 06:56:58;;;;;;;;;3.75;2.00;;;;;10.04;100.00;102522.22;5070260;27;46536;-72
2023/01/03 06:59:23;;;;;;;;;2.50;2.50;;;;;10.00;100.00;102515.91;5065621;27;45407;-73
2023/01/03 07:01:50;;;;;;;;;4.50;3.25;;;;;9.96;100.00;102522.81;5078465;27;45458;-73
2023/01/03 07:04:16;;;;;;;;;2.00;2.00;;;;;9.94;100.00;102520.94;5059656;28;45775;-72
2023/01/03 07:06:42;;;;;;;;;4.00;2.00;;;;;9.96;100.00;102529.84;5036211;28;46278;-73
2023/01/03 07:09:08;;;;;;;;;3.75;3.00;;;;;9.94;100.00;102516.56;5053844;28;45852;-72
2023/01/03 07:11:34;;;;;;;;;2.50;2.50;;;;;9.91;100.00;102519.09;5069315;28;45560;-73
2023/01/03 07:14:01;;;;;;;;;4.00;3.00;;;;;9.93;100.00;102527.06;5065877;28;45530;-74
2023/01/03 07:16:28;;;;;;;;;2.25;2.25;;;;;9.92;100.00;102528.78;5050496;28;46695;-70
2023/01/03 07:18:53;;;;;;;;;5.25;3.00;;;;;9.92;100.00;102533.19;5056965;28;46221;-74
2023/01/03 07:21:19;;;;;;;;;2.25;1.75;;;;;9.93;100.00;102530.59;5060201;28;45986;-73
2023/01/03 07:23:45;;;;;;;;;4.00;2.50;;;;;9.92;100.00;102527.91;5063516;28;45301;-73
2023/01/03 07:26:10;;;;;;;;;7.00;3.00;;;;;9.94;100.00;102535.03;5044951;28;46034;-72
2023/01/03 07:28:35;;;;;;;;;3.00;3.00;;;;;9.90;100.00;102533.09;5063022;28;57322;-72
2023/01/03 07:31:03;;;;;;;;;2.50;2.50;;;;;9.89;100.00;102538.31;5046831;28;45221;-73
2023/01/03 07:33:29;;;;;;;;;2.25;2.25;;;;;9.91;100.00;102547.22;5046028;28;45576;-72
2023/01/03 07:36:02;;;;;;;;;2.00;2.00;;;;;9.94;100.00;102534.13;5051704;28;46891;-73
2023/01/03 07:38:28;;;;;;;;;6.00;3.25;;;;;9.94;100.00;102542.03;5049139;28;45393;-73
2023/01/03 07:41:00;;;;;;;;;4.25;4.00;;;;;9.92;100.00;102542.00;5062887;28;45434;-72
2023/01/03 07:43:35;;;;;;;;;3.00;3.00;;;;;9.94;100.00;102537.66;5067217;28;45663;-73
2023/01/03 07:46:11;;;;;;;;;3.75;3.00;;;;;9.98;100.00;102550.16;5076782;28;45752;-73
2023/01/03 07:48:37;;;;;;;;;3.00;3.00;;;;;10.00;100.00;102547.56;5051661;28;45326;-72
2023/01/03 07:51:04;;;;;;;;;6.50;3.25;;;;;10.03;100.00;102558.25;5069757;28;45511;-72
2023/01/03 07:53:29;;;;;;;;;3.67;3.00;;;;;10.06;100.00;102562.75;5058999;28;45235;-73
2023/01/03 07:56:09;;;;;;;;;4.50;3.00;;;;;10.11;100.00;102563.84;5067305;28;50215;-73
2023/01/03 07:58:35;;;;;;;;;8.00;3.00;;;;;10.18;100.00;102566.81;5070526;28;45535;-73
2023/01/03 08:01:09;;;;;;;;;2.00;1.00;;;;;10.29;100.00;102569.00;5072983;28;45584;-73
2023/01/03 08:03:35;;;;;;;;;4.75;3.25;;;;;10.36;100.00;102569.31;5056984;28;45569;-72
2023/01/03 08:06:09;;;;;;;;;6.00;4.00;;;;;10.42;100.00;102574.81;5058511;28;46304;-74
2023/01/03 08:08:35;;;;;;;;;1.00;1.00;;;;;10.48;100.00;102560.97;5046307;28;45384;-72
2023/01/03 08:13:45;;;;;;;;;7.00;3.00;;;;;10.57;100.00;102573.63;5054619;28;45463;-73
2023/01/03 08:16:13;;;;;;;;;5.00;3.00;;;;;10.59;100.00;102578.13;5072697;28;46037;-73
2023/01/03 08:18:39;;;;;;;;;6.33;2.67;;;;;10.64;100.00;102575.66;5067775;28;45276;-73
2023/01/03 08:21:07;;;;;;;;;4.00;4.00;;;;;10.68;100.00;102583.75;5065159;28;45407;-73
2023/01/03 08:23:32;;;;;;;;;4.00;3.00;;;;;10.69;100.00;102585.56;5065028;28;45670;-73
2023/01/03 08:26:03;;;;;;;;;4.50;3.00;;;;;10.72;100.00;102590.97;5067068;28;45653;-74
2023/01/03 08:28:28;;;;;;;;;2.00;2.00;;;;;10.71;100.00;102588.28;5057479;28;45521;-73
2023/01/03 08:30:54;;;;;;;;;3.00;3.00;;;;;10.73;100.00;102590.13;5063093;28;45558;-72
2023/01/03 08:33:19;;;;;;;;;2.00;2.00;;;;;10.72;100.00;102595.38;5051574;28;45498;-73
2023/01/03 08:35:50;;;;;;;;;3.67;3.00;;;;;10.74;100.00;102588.38;5072974;28;45614;-72
2023/01/03 08:38:18;;;;;;;;;3.67;3.67;;;;;10.78;100.00;102592.06;5060283;28;45565;-73
2023/01/03 08:40:45;;;;;;;;;4.00;3.00;;;;;10.78;100.00;102594.69;5049258;28;45393;-74
2023/01/03 08:43:11;;;;;;;;;5.00;3.67;;;;;10.83;100.00;102593.13;5074614;28;52485;-72
2023/01/03 08:45:37;;;;;;;;;9.00;3.00;;;;;10.86;100.00;102593.22;5065555;28;61426;-72
2023/01/03 08:48:03;;;;;;;;;3.33;2.33;;;;;10.89;100.00;102596.91;5070789;28;45433;-72
2023/01/03 08:52:58;;;;;;;;;5.33;4.00;;;;;10.98;100.00;102599.91;5064523;27;46899;-73
2023/01/03 08:55:24;;;;;;;;;5.00;2.00;;;;;11.02;100.00;102604.47;5071411;27;45905;-73
2023/01/03 08:57:49;;;;;;;;;5.00;2.67;;;;;11.02;100.00;102604.47;5072194;28;45525;-73
2023/01/03 09:00:15;;;;;;;;;2.67;1.67;;;;;11.05;100.00;102603.66;5047603;28;53233;-73
2023/01/03 09:02:40;;;;;;;;;4.00;3.00;;;;;11.08;100.00;102602.88;5048243;28;45210;-73
2023/01/03 09:05:06;;;;;;;;;3.00;3.00;;;;;11.10;100.00;102603.84;5065398;27;62321;-73
2023/01/03 09:07:32;;;;;;;;;3.33;3.33;;;;;11.10;100.00;102604.75;5071361;27;45349;-72
2023/01/03 09:09:57;;;;;;;;;5.00;3.00;;;;;11.13;100.00;102603.94;5072562;28;48307;-72
2023/01/03 09:12:22;;;;;;;;;3.67;2.00;;;;;11.17;100.00;102608.50;5072850;28;45390;-72
2023/01/03 09:14:48;;;;;;;;;4.33;3.00;;;;;11.19;100.00;102605.09;5059776;28;58302;-73
2023/01/03 09:17:13;;;;;;;;;3.00;3.00;;;;;11.24;100.00;102614.09;5077265;28;45420;-72
2023/01/03 09:19:38;;;;;;;;;3.67;3.00;;;;;11.28;100.00;102620.38;5077937;27;45663;-72
2023/01/03 09:22:04;;;;;;;;;5.00;4.00;;;;;11.33;100.00;102609.97;5077427;27;45343;-73
2023/01/03 09:24:29;;;;;;;;;4.67;2.00;;;;;11.36;100.00;102624.22;5068658;28;62183;-72
2023/01/03 09:26:54;;;;;;;;;2.00;2.00;;;;;11.41;100.00;102614.69;5066486;27;56038;-72
2023/01/03 09:29:20;;;;;;;;;3.00;3.00;;;;;11.47;100.00;102621.97;5064374;27;45516;-72
2023/01/03 09:31:45;;;;;;;;;4.67;3.00;;;;;11.51;100.00;102614.19;5072746;28;50218;-72
2023/01/03 09:34:10;;;;;;;;;4.33;4.33;;;;;11.59;100.00;102621.50;5061118;27;61439;-73
2023/01/03 09:36:37;;;;;;;;;4.00;3.00;;;;;11.60;100.00;102610.94;5069325;27;58735;-73
2023/01/03 09:39:03;;;;;;;;;5.00;4.00;;;;;11.64;100.00;102609.31;5074182;28;45297;-73
2023/01/03 09:41:29;;;;;;;;;3.67;2.33;;;;;11.66;100.00;102608.50;5076645;28;45276;-72
2023/01/03 09:44:01;;;;;;;;;4.00;4.00;;;;;11.72;100.00;102599.91;5070476;27;48572;-73
2023/01/03 09:46:28;;;;;;;;;3.00;3.00;;;;;11.78;100.00;102602.78;5073633;28;45222;-73
2023/01/03 09:48:54;;;;;;;;;4.00;2.00;;;;;11.87;100.00;102607.50;5047500;28;45398;-72
2023/01/03 10:05:28;;;;;;;;;3.00;3.00;;;;;11.99;100.00;102624.72;5064286;27;45488;-73
2023/01/03 10:08:21;;;;;;;;;3.67;2.67;;;;;12.02;100.00;102627.44;5064984;28;45377;-73
2023/01/03 10:11:24;;;;;;;;;5.67;3.33;;;;;12.02;100.00;102624.81;5067255;27;45322;-73
2023/01/03 10:13:59;;;;;;;;;3.00;3.00;;;;;11.99;100.00;102630.00;5072649;28;45567;-74
2023/01/03 10:16:55;;;;;;;;;3.00;3.00;;;;;11.95;100.00;102627.19;5064801;27;45884;-73
2023/01/03 10:19:58;;;;;;;;;2.67;2.67;;;;;11.97;100.00;102642.28;5073958;27;45280;-71
2023/01/03 10:22:28;;;;;;;;;5.00;2.67;;;;;11.98;100.00;102645.81;5047188;28;45483;-72
2023/01/03 10:25:15;;;;;;;;;3.67;3.00;;;;;11.97;100.00;102642.28;5057869;28;45311;-73
2023/01/03 10:27:50;;;;;;;;;5.33;3.00;;;;;11.98;100.00;102643.16;5062536;28;46836;-72
2023/01/03 10:30:18;;;;;;;;;11.00;3.00;;;;;11.94;100.00;102639.53;5053185;28;45368;-73
2023/01/03 10:33:10;;;;;;;;;2.00;2.00;;;;;11.88;100.00;102641.97;5070216;27;45169;-73
2023/01/03 10:35:36;;;;;;;;;2.67;2.00;;;;;11.81;100.00;102642.56;5067337;27;45410;-73
2023/01/03 10:38:02;;;;;;;;;3.67;3.67;;;;;11.75;100.00;102634.41;5048418;28;45929;-73
2023/01/03 10:40:35;;;;;;;;;2.67;2.67;;;;;11.77;100.00;102638.00;5040048;28;45506;-72
2023/01/03 10:43:25;;;;;;;;;3.33;2.00;;;;;11.73;100.00;102626.44;5048121;28;45463;-74
2023/01/03 10:45:57;;;;;;;;;7.00;2.00;;;;;11.72;100.00;102635.22;5046271;28;45556;-72
2023/01/03 10:48:23;;;;;;;;;3.33;2.00;;;;;11.66;100.00;102636.72;5066122;28;46018;-72
2023/01/03 10:50:49;;;;;;;;;4.33;2.00;;;;;11.62;100.00;102626.91;5072243;28;45484;-72
2023/01/03 10:53:17;;;;;;;;;3.00;2.00;;;;;11.61;100.00;102625.06;5066259;27;45489;-72
2023/01/03 10:55:50;;;;;;;;;3.67;2.33;;;;;11.63;100.00;102626.06;5070427;28;46622;-72
2023/01/03 10:58:19;;;;;;;;;2.00;2.00;;;;;11.68;100.00;102627.13;5065321;28;46015;-73
2023/01/03 11:00:44;;;;;;;;;4.33;1.67;;;;;11.68;100.00;102629.75;5066387;28;45454;-73
2023/01/03 11:03:10;;;;;;;;;2.33;2.33;;;;;11.67;100.00;102627.97;5070993;27;45697;-73
2023/01/03 11:05:36;;;;;;;;;4.33;2.00;;;;;11.62;100.00;102624.25;5067267;28;45679;-72
2023/01/03 11:08:03;;;;;;;;;1.67;1.67;;;;;11.61;100.00;102617.13;5062409;28;46859;-72
2023/01/03 11:10:49;;;;;;;;;2.00;2.00;;;;;11.62;100.00;102619.84;5046081;28;45455;-72
2023/01/03 11:13:31;;;;;;;;;3.00;3.00;;;;;11.72;100.00;102621.09;5055976;27;45161;-72
2023/01/03 11:16:00;;;;;;;;;1.00;1.00;;;;;11.81;100.00;102618.75;5077410;27;45369;-72
2023/01/03 11:18:27;;;;;;;;;2.00;2.00;;;;;11.94;100.00;102626.31;5051110;28;46676;-73
2023/01/03 11:21:11;;;;;;;;;3.00;3.00;;;;;12.08;100.00;102621.47;5052815;27;45632;-73
2023/01/03 11:24:04;;;;;;;;;3.00;3.00;;;;;12.18;100.00;102610.31;5069357;27;45426;-73
2023/01/03 11:26:49;;;;;;;;;3.00;3.00;;;;;12.23;100.00;102613.13;5049528;28;45589;-72
2023/01/03 11:29:14;;;;;;;;;3.67;2.00;;;;;12.22;100.00;102606.03;5064169;28;46129;-71
2023/01/03 11:31:44;;;;;;;;;5.33;3.00;;;;;12.19;100.00;102606.81;5043122;28;46358;-71
2023/01/03 11:34:32;;;;;;;;;3.33;2.67;;;;;12.14;100.00;102600.47;5071936;27;45625;-70
2023/01/03 11:37:10;;;;;;;;;4.00;2.00;;;;;12.11;100.00;102603.03;5070078;28;45244;-72
2023/01/03 11:39:35;;;;;;;;;3.67;2.00;;;;;12.06;100.00;102618.78;5066285;28;48417;-72
2023/01/03 11:42:07;;;;;;;;;3.67;3.00;;;;;12.02;100.00;102613.31;5076643;27;45456;-75
2023/01/03 11:45:04;;;;;;;;;5.00;2.00;;;;;11.99;100.00;102608.84;5035277;28;45336;-72
2023/01/03 11:47:54;;;;;;;;;5.00;3.00;;;;;11.98;100.00;102604.34;5072230;27;45180;-72
2023/01/03 11:50:44;;;;;;;;;3.00;2.00;;;;;11.98;100.00;102611.41;5066965;27;45737;-71
2023/01/03 11:53:17;;;;;;;;;4.33;2.00;;;;;11.96;100.00;102595.47;5075057;28;45385;-72
2023/01/03 11:55:57;;;;;;;;;3.00;2.00;;;;;11.93;100.00;102598.03;5074561;27;45434;-71
2023/01/03 11:58:55;;;;;;;;;2.00;2.00;;;;;11.94;100.00;102593.66;5072828;28;45493;-71
2023/01/03 12:01:34;;;;;;;;;2.00;2.00;;;;;11.97;100.00;102596.38;5073273;28;45920;-73
2023/01/03 12:04:03;;;;;;;;;2.00;2.00;;;;;11.99;100.00;102592.94;5073013;27;45508;-72
2023/01/03 12:06:36;;;;;;;;;3.00;2.00;;;;;12.01;100.00;102588.59;5075087;28;45453;-71
2023/01/03 12:09:23;;;;;;;;;3.00;2.00;;;;;12.07;100.00;102583.50;5071236;28;45286;-73
2023/01/03 12:12:18;;;;;;;;;2.00;2.00;;;;;12.13;100.00;102577.50;5078218;28;45819;-72
2023/01/03 12:15:08;;;;;;;;;1.33;1.33;;;;;12.17;100.00;102566.16;5066106;27;45528;-73
2023/01/03 12:17:44;;;;;;;;;1.00;1.00;;;;;12.18;100.00;102572.34;5068066;27;45556;-73
2023/01/03 12:20:22;;;;;;;;;3.00;0.67;;;;;12.20;100.00;102578.63;5068984;27;45538;-71
2023/01/03 12:22:55;;;;;;;;;2.00;2.00;;;;;12.22;100.00;102580.44;5060475;27;46369;-71
2023/01/03 12:25:28;;;;;;;;;2.33;2.00;;;;;12.32;100.00;102576.34;5077019;27;45166;-70
2023/01/03 12:28:09;;;;;;;;;1.00;1.00;;;;;12.36;100.00;102567.66;5057622;28;45245;-71